sensor_id;sensor_type;location;lat;lon;timestamp;pressure;altitude;pressure_sealevel;temperature;humidity
59337;BME280;45115;52.002;4.686;2024-03-08T00:00:22;102047.28;;;2.98;86.30
59337;BME280;45115;52.002;4.686;2024-03-08T00:02:49;102051.44;;;2.95;86.03
59337;BME280;45115;52.002;4.686;2024-03-08T00:05:17;102044.69;;;2.94;86.40
59337;BME280;45115;52.002;4.686;2024-03-08T00:07:44;102042.16;;;2.94;86.20
59337;BME280;45115;52.002;4.686;2024-03-08T00:10:12;102028.56;;;2.90;86.03
59337;BME280;45115;52.002;4.686;2024-03-08T00:12:40;102031.97;;;2.91;85.88
59337;BME280;45115;52.002;4.686;2024-03-08T00:15:09;102041.22;;;2.89;85.96
59337;BME280;45115;52.002;4.686;2024-03-08T00:17:36;102042.09;;;2.91;86.15
59337;BME280;45115;52.002;4.686;2024-03-08T00:20:04;102039.47;;;2.83;86.35
59337;BME280;45115;52.002;4.686;2024-03-08T00:22:33;102037.00;;;2.88;86.02
59337;BME280;45115;52.002;4.686;2024-03-08T00:25:01;102024.25;;;2.82;85.90
59337;BME280;45115;52.002;4.686;2024-03-08T00:27:28;102021.66;;;2.79;86.05
59337;BME280;45115;52.002;4.686;2024-03-08T00:29:56;102020.78;;;2.72;86.27
59337;BME280;45115;52.002;4.686;2024-03-08T00:32:24;102025.81;;;2.73;85.91
59337;BME280;45115;52.002;4.686;2024-03-08T00:34:51;102019.00;;;2.66;86.06
59337;BME280;45115;52.002;4.686;2024-03-08T00:37:18;102014.84;;;2.70;86.14
59337;BME280;45115;52.002;4.686;2024-03-08T00:39:44;102014.78;;;2.65;86.40
59337;BME280;45115;52.002;4.686;2024-03-08T00:42:11;102023.06;;;2.55;85.95
59337;BME280;45115;52.002;4.686;2024-03-08T00:44:39;102015.50;;;2.57;86.47
59337;BME280;45115;52.002;4.686;2024-03-08T00:47:05;102011.22;;;2.53;86.31
59337;BME280;45115;52.002;4.686;2024-03-08T00:49:34;102008.66;;;2.51;86.43
59337;BME280;45115;52.002;4.686;2024-03-08T00:52:02;102020.38;;;2.42;86.94
59337;BME280;45115;52.002;4.686;2024-03-08T00:54:28;102010.97;;;2.33;87.36
59337;BME280;45115;52.002;4.686;2024-03-08T00:56:55;102010.19;;;2.37;87.13
59337;BME280;45115;52.002;4.686;2024-03-08T00:59:22;102010.22;;;2.40;86.72
59337;BME280;45115;52.002;4.686;2024-03-08T01:01:49;101996.72;;;2.41;86.52
59337;BME280;45115;52.002;4.686;2024-03-08T01:04:15;102000.97;;;2.42;86.53
59337;BME280;45115;52.002;4.686;2024-03-08T01:06:43;101999.22;;;2.38;86.31
59337;BME280;45115;52.002;4.686;2024-03-08T01:09:11;101998.31;;;2.33;86.74
59337;BME280;45115;52.002;4.686;2024-03-08T01:11:37;101995.03;;;2.40;86.13
59337;BME280;45115;52.002;4.686;2024-03-08T01:14:05;101989.03;;;2.35;86.58
59337;BME280;45115;52.002;4.686;2024-03-08T01:16:32;101983.88;;;2.27;86.34
59337;BME280;45115;52.002;4.686;2024-03-08T01:18:59;101978.91;;;2.33;86.03
59337;BME280;45115;52.002;4.686;2024-03-08T01:21:26;101970.41;;;2.30;85.96
59337;BME280;45115;52.002;4.686;2024-03-08T01:23:53;101975.44;;;2.28;86.46
59337;BME280;45115;52.002;4.686;2024-03-08T01:26:20;101965.31;;;2.28;85.93
59337;BME280;45115;52.002;4.686;2024-03-08T01:28:47;101971.28;;;2.32;85.88
59337;BME280;45115;52.002;4.686;2024-03-08T01:31:13;101954.31;;;2.26;86.04
59337;BME280;45115;52.002;4.686;2024-03-08T01:33:41;101953.38;;;2.18;86.27
59337;BME280;45115;52.002;4.686;2024-03-08T01:36:08;101954.34;;;2.28;85.82
59337;BME280;45115;52.002;4.686;2024-03-08T01:38:34;101949.19;;;2.22;85.87
59337;BME280;45115;52.002;4.686;2024-03-08T01:41:03;101949.31;;;2.31;85.40
59337;BME280;45115;52.002;4.686;2024-03-08T01:43:30;101950.00;;;2.18;85.68
59337;BME280;45115;52.002;4.686;2024-03-08T01:45:58;101949.97;;;2.15;85.92
59337;BME280;45115;52.002;4.686;2024-03-08T01:48:25;101946.56;;;2.13;86.29
59337;BME280;45115;52.002;4.686;2024-03-08T01:50:52;101939.69;;;2.06;86.25
59337;BME280;45115;52.002;4.686;2024-03-08T01:53:21;101942.16;;;1.99;86.58
59337;BME280;45115;52.002;4.686;2024-03-08T01:55:49;101945.47;;;1.97;86.34
59337;BME280;45115;52.002;4.686;2024-03-08T01:58:17;101932.84;;;1.98;86.06
59337;BME280;45115;52.002;4.686;2024-03-08T02:00:48;101941.28;;;1.99;86.40
59337;BME280;45115;52.002;4.686;2024-03-08T02:03:16;101929.44;;;1.96;86.08
59337;BME280;45115;52.002;4.686;2024-03-08T02:05:43;101937.09;;;1.99;85.82
59337;BME280;45115;52.002;4.686;2024-03-08T02:08:09;101923.56;;;1.97;86.40
59337;BME280;45115;52.002;4.686;2024-03-08T02:10:40;101925.16;;;1.91;85.97
59337;BME280;45115;52.002;4.686;2024-03-08T02:13:07;101921.75;;;1.87;86.11
59337;BME280;45115;52.002;4.686;2024-03-08T02:15:52;101914.25;;;1.96;86.04
59337;BME280;45115;52.002;4.686;2024-03-08T02:18:19;101908.31;;;1.94;85.75
59337;BME280;45115;52.002;4.686;2024-03-08T02:20:47;101909.13;;;1.89;85.76
59337;BME280;45115;52.002;4.686;2024-03-08T02:23:14;101909.03;;;1.84;86.19
59337;BME280;45115;52.002;4.686;2024-03-08T02:25:41;101897.13;;;1.77;86.27
59337;BME280;45115;52.002;4.686;2024-03-08T02:28:09;101901.38;;;1.78;85.87
59337;BME280;45115;52.002;4.686;2024-03-08T02:30:36;101892.91;;;1.76;85.81
59337;BME280;45115;52.002;4.686;2024-03-08T02:33:04;101891.19;;;1.75;85.73
59337;BME280;45115;52.002;4.686;2024-03-08T02:35:31;101889.50;;;1.76;86.31
59337;BME280;45115;52.002;4.686;2024-03-08T02:37:59;101886.19;;;1.78;85.88
59337;BME280;45115;52.002;4.686;2024-03-08T02:40:25;101887.81;;;1.75;85.65
59337;BME280;45115;52.002;4.686;2024-03-08T02:42:52;101881.78;;;1.66;85.73
59337;BME280;45115;52.002;4.686;2024-03-08T02:45:19;101880.94;;;1.66;86.24
59337;BME280;45115;52.002;4.686;2024-03-08T02:47:46;101878.38;;;1.63;86.18
59337;BME280;45115;52.002;4.686;2024-03-08T02:50:15;101878.50;;;1.72;85.27
59337;BME280;45115;52.002;4.686;2024-03-08T02:52:42;101875.88;;;1.66;85.44
59337;BME280;45115;52.002;4.686;2024-03-08T02:55:10;101866.59;;;1.63;85.43
59337;BME280;45115;52.002;4.686;2024-03-08T02:57:40;101877.50;;;1.61;85.60
59337;BME280;45115;52.002;4.686;2024-03-08T03:00:08;101870.72;;;1.58;85.58
59337;BME280;45115;52.002;4.686;2024-03-08T03:02:35;101859.72;;;1.55;85.60
59337;BME280;45115;52.002;4.686;2024-03-08T03:05:03;101863.91;;;1.53;85.39
59337;BME280;45115;52.002;4.686;2024-03-08T03:07:31;101852.09;;;1.52;85.68
59337;BME280;45115;52.002;4.686;2024-03-08T03:09:58;101857.13;;;1.52;85.86
59337;BME280;45115;52.002;4.686;2024-03-08T03:12:27;101848.69;;;1.51;85.64
59337;BME280;45115;52.002;4.686;2024-03-08T03:14:53;101849.63;;;1.56;85.63
59337;BME280;45115;52.002;4.686;2024-03-08T03:17:21;101845.31;;;1.51;85.61
59337;BME280;45115;52.002;4.686;2024-03-08T03:19:48;101847.88;;;1.52;84.97
59337;BME280;45115;52.002;4.686;2024-03-08T03:22:15;101835.16;;;1.48;85.13
59337;BME280;45115;52.002;4.686;2024-03-08T03:24:42;101846.94;;;1.46;85.38
59337;BME280;45115;52.002;4.686;2024-03-08T03:27:08;101836.78;;;1.44;85.26
59337;BME280;45115;52.002;4.686;2024-03-08T03:29:38;101833.38;;;1.41;85.26
59337;BME280;45115;52.002;4.686;2024-03-08T03:32:05;101835.00;;;1.39;85.34
59337;BME280;45115;52.002;4.686;2024-03-08T03:34:33;101828.25;;;1.36;84.84
59337;BME280;45115;52.002;4.686;2024-03-08T03:37:01;101839.22;;;1.35;84.89
59337;BME280;45115;52.002;4.686;2024-03-08T03:39:28;101834.16;;;1.38;84.78
59337;BME280;45115;52.002;4.686;2024-03-08T03:41:57;101823.19;;;1.38;85.10
59337;BME280;45115;52.002;4.686;2024-03-08T03:44:23;101827.31;;;1.29;84.90
59337;BME280;45115;52.002;4.686;2024-03-08T03:46:52;101823.03;;;1.25;85.48
59337;BME280;45115;52.002;4.686;2024-03-08T03:49:26;101822.19;;;1.25;84.82
59337;BME280;45115;52.002;4.686;2024-03-08T03:51:54;101827.97;;;1.18;85.48
59337;BME280;45115;52.002;4.686;2024-03-08T03:54:21;101828.00;;;1.19;85.27
59337;BME280;45115;52.002;4.686;2024-03-08T03:56:48;101824.66;;;1.22;84.90
59337;BME280;45115;52.002;4.686;2024-03-08T03:59:18;101817.00;;;1.17;85.18
59337;BME280;45115;52.002;4.686;2024-03-08T04:01:44;101817.75;;;1.12;85.40
59337;BME280;45115;52.002;4.686;2024-03-08T04:04:12;101819.50;;;1.14;84.75
59337;BME280;45115;52.002;4.686;2024-03-08T04:06:39;101810.19;;;1.12;84.61
59337;BME280;45115;52.002;4.686;2024-03-08T04:09:06;101811.84;;;1.08;85.26
59337;BME280;45115;52.002;4.686;2024-03-08T04:11:33;101802.56;;;1.10;84.92
59337;BME280;45115;52.002;4.686;2024-03-08T04:14:00;101791.53;;;1.02;85.38
59337;BME280;45115;52.002;4.686;2024-03-08T04:16:26;101805.09;;;1.07;84.82
59337;BME280;45115;52.002;4.686;2024-03-08T04:18:53;101796.56;;;1.02;84.58
59337;BME280;45115;52.002;4.686;2024-03-08T04:21:21;101787.34;;;1.04;84.25
59337;BME280;45115;52.002;4.686;2024-03-08T04:23:48;101783.16;;;1.06;84.57
59337;BME280;45115;52.002;4.686;2024-03-08T04:26:15;101787.38;;;1.07;84.29
59337;BME280;45115;52.002;4.686;2024-03-08T04:28:42;101781.44;;;1.04;84.02
59337;BME280;45115;52.002;4.686;2024-03-08T04:31:08;101780.50;;;0.97;84.43
59337;BME280;45115;52.002;4.686;2024-03-08T04:33:36;101783.88;;;0.97;84.32
59337;BME280;45115;52.002;4.686;2024-03-08T04:36:03;101777.00;;;0.89;84.82
59337;BME280;45115;52.002;4.686;2024-03-08T04:38:31;101778.75;;;0.93;84.29
59337;BME280;45115;52.002;4.686;2024-03-08T04:40:59;101777.97;;;0.97;84.54
59337;BME280;45115;52.002;4.686;2024-03-08T04:43:27;101777.91;;;0.94;84.70
59337;BME280;45115;52.002;4.686;2024-03-08T04:45:55;101782.88;;;0.89;84.41
59337;BME280;45115;52.002;4.686;2024-03-08T04:48:22;101782.09;;;0.92;84.01
59337;BME280;45115;52.002;4.686;2024-03-08T04:50:48;101775.28;;;0.88;84.53
59337;BME280;45115;52.002;4.686;2024-03-08T04:53:15;101768.56;;;0.88;84.59
59337;BME280;45115;52.002;4.686;2024-03-08T04:55:44;101770.94;;;0.78;84.57
59337;BME280;45115;52.002;4.686;2024-03-08T04:58:11;101775.16;;;0.79;84.83
59337;BME280;45115;52.002;4.686;2024-03-08T05:00:38;101767.56;;;0.77;84.65
59337;BME280;45115;52.002;4.686;2024-03-08T05:03:05;101770.00;;;0.73;85.17
59337;BME280;45115;52.002;4.686;2024-03-08T05:05:31;101766.59;;;0.71;84.83
59337;BME280;45115;52.002;4.686;2024-03-08T05:07:58;101764.88;;;0.68;85.26
59337;BME280;45115;52.002;4.686;2024-03-08T05:10:26;101760.72;;;0.72;84.85
59337;BME280;45115;52.002;4.686;2024-03-08T05:12:54;101761.56;;;0.71;85.14
59337;BME280;45115;52.002;4.686;2024-03-08T05:15:21;101761.53;;;0.69;84.94
59337;BME280;45115;52.002;4.686;2024-03-08T05:17:50;101758.94;;;0.66;85.45
59337;BME280;45115;52.002;4.686;2024-03-08T05:20:17;101751.38;;;0.66;85.26
59337;BME280;45115;52.002;4.686;2024-03-08T05:22:45;101748.91;;;0.71;85.16
59337;BME280;45115;52.002;4.686;2024-03-08T05:25:14;101751.44;;;0.71;84.68
59337;BME280;45115;52.002;4.686;2024-03-08T05:27:40;101750.59;;;0.70;84.63
59337;BME280;45115;52.002;4.686;2024-03-08T05:30:09;101751.41;;;0.69;85.00
59337;BME280;45115;52.002;4.686;2024-03-08T05:32:40;101750.53;;;0.67;84.91
59337;BME280;45115;52.002;4.686;2024-03-08T05:35:10;101748.84;;;0.66;84.62
59337;BME280;45115;52.002;4.686;2024-03-08T05:37:37;101748.03;;;0.68;84.70
59337;BME280;45115;52.002;4.686;2024-03-08T05:40:05;101744.59;;;0.63;85.14
59337;BME280;45115;52.002;4.686;2024-03-08T05:42:34;101740.34;;;0.61;85.09
59337;BME280;45115;52.002;4.686;2024-03-08T05:45:01;101746.97;;;0.56;84.91
59337;BME280;45115;52.002;4.686;2024-03-08T05:47:29;101742.84;;;0.59;85.36
59337;BME280;45115;52.002;4.686;2024-03-08T05:49:56;101747.00;;;0.57;85.26
59337;BME280;45115;52.002;4.686;2024-03-08T05:52:23;101743.63;;;0.57;84.72
59337;BME280;45115;52.002;4.686;2024-03-08T05:54:49;101739.44;;;0.57;85.04
59337;BME280;45115;52.002;4.686;2024-03-08T05:57:16;101738.56;;;0.55;85.42
59337;BME280;45115;52.002;4.686;2024-03-08T05:59:43;101736.88;;;0.56;84.95
59337;BME280;45115;52.002;4.686;2024-03-08T06:02:09;101736.00;;;0.51;85.30
59337;BME280;45115;52.002;4.686;2024-03-08T06:04:38;101735.22;;;0.58;84.82
59337;BME280;45115;52.002;4.686;2024-03-08T06:07:05;101733.50;;;0.55;84.83
59337;BME280;45115;52.002;4.686;2024-03-08T06:09:37;101733.53;;;0.57;85.53
59337;BME280;45115;52.002;4.686;2024-03-08T06:12:04;101734.50;;;0.63;85.15
59337;BME280;45115;52.002;4.686;2024-03-08T06:14:32;101729.44;;;0.63;85.15
59337;BME280;45115;52.002;4.686;2024-03-08T06:16:58;101719.25;;;0.59;84.88
59337;BME280;45115;52.002;4.686;2024-03-08T06:19:25;101719.31;;;0.62;84.99
59337;BME280;45115;52.002;4.686;2024-03-08T06:21:53;101723.56;;;0.64;85.09
59337;BME280;45115;52.002;4.686;2024-03-08T06:24:20;101712.47;;;0.56;84.92
59337;BME280;45115;52.002;4.686;2024-03-08T06:26:47;101723.47;;;0.60;85.03
59337;BME280;45115;52.002;4.686;2024-03-08T06:29:14;101716.03;;;0.67;84.43
59337;BME280;45115;52.002;4.686;2024-03-08T06:31:41;101723.66;;;0.71;84.85
59337;BME280;45115;52.002;4.686;2024-03-08T06:34:07;101720.34;;;0.75;83.87
59337;BME280;45115;52.002;4.686;2024-03-08T06:36:34;101721.19;;;0.74;84.45
59337;BME280;45115;52.002;4.686;2024-03-08T06:39:04;101715.31;;;0.75;83.94
59337;BME280;45115;52.002;4.686;2024-03-08T06:41:35;101704.47;;;0.82;84.11
59337;BME280;45115;52.002;4.686;2024-03-08T06:44:02;101710.38;;;0.85;83.64
59337;BME280;45115;52.002;4.686;2024-03-08T06:46:28;101698.56;;;0.83;83.65
59337;BME280;45115;52.002;4.686;2024-03-08T06:48:55;101701.13;;;0.86;84.02
59337;BME280;45115;52.002;4.686;2024-03-08T06:51:22;101699.63;;;0.97;83.58
59337;BME280;45115;52.002;4.686;2024-03-08T06:53:49;101698.00;;;1.02;83.39
59337;BME280;45115;52.002;4.686;2024-03-08T06:56:19;101690.50;;;1.07;83.00
59337;BME280;45115;52.002;4.686;2024-03-08T06:58:47;101701.47;;;1.10;82.59
59337;BME280;45115;52.002;4.686;2024-03-08T07:01:14;101690.59;;;1.16;82.71
59337;BME280;45115;52.002;4.686;2024-03-08T07:03:42;101696.59;;;1.22;81.99
59337;BME280;45115;52.002;4.686;2024-03-08T07:06:10;101690.81;;;1.32;81.37
59337;BME280;45115;52.002;4.686;2024-03-08T07:08:36;101696.81;;;1.41;80.93
59337;BME280;45115;52.002;4.686;2024-03-08T07:11:03;101683.44;;;1.49;81.06
59337;BME280;45115;52.002;4.686;2024-03-08T07:13:31;101683.56;;;1.60;80.69
59337;BME280;45115;52.002;4.686;2024-03-08T07:15:58;101680.44;;;1.85;79.59
59337;BME280;45115;52.002;4.686;2024-03-08T07:18:26;101682.41;;;2.14;78.25
59337;BME280;45115;52.002;4.686;2024-03-08T07:20:53;101678.25;;;2.25;77.46
59337;BME280;45115;52.002;4.686;2024-03-08T07:23:19;101679.72;;;1.98;77.93
59337;BME280;45115;52.002;4.686;2024-03-08T07:26:00;101678.84;;;1.95;78.27
59337;BME280;45115;52.002;4.686;2024-03-08T07:28:27;101678.00;;;1.94;78.69
59337;BME280;45115;52.002;4.686;2024-03-08T07:30:57;101670.47;;;2.00;78.82
59337;BME280;45115;52.002;4.686;2024-03-08T07:33:38;101664.59;;;2.06;78.78
59337;BME280;45115;52.002;4.686;2024-03-08T07:36:04;101664.88;;;2.38;77.13
59337;BME280;45115;52.002;4.686;2024-03-08T07:38:31;101665.91;;;2.66;75.94
59337;BME280;45115;52.002;4.686;2024-03-08T07:40:58;101668.56;;;2.86;75.33
59337;BME280;45115;52.002;4.686;2024-03-08T07:43:24;101664.41;;;2.97;74.65
59337;BME280;45115;52.002;4.686;2024-03-08T07:45:51;101664.41;;;3.03;74.42
59337;BME280;45115;52.002;4.686;2024-03-08T07:48:21;101674.63;;;3.15;74.00
59337;BME280;45115;52.002;4.686;2024-03-08T07:50:48;101662.81;;;3.16;73.63
59337;BME280;45115;52.002;4.686;2024-03-08T07:53:15;101662.06;;;3.41;73.43
59337;BME280;45115;52.002;4.686;2024-03-08T07:55:42;101657.00;;;3.49;73.11
59337;BME280;45115;52.002;4.686;2024-03-08T07:58:11;101663.78;;;3.53;72.76
59337;BME280;45115;52.002;4.686;2024-03-08T08:00:39;101664.63;;;3.58;72.35
59337;BME280;45115;52.002;4.686;2024-03-08T08:03:06;101650.31;;;3.86;71.26
59337;BME280;45115;52.002;4.686;2024-03-08T08:05:35;101637.59;;;3.84;71.55
59337;BME280;45115;52.002;4.686;2024-03-08T08:08:04;101655.38;;;3.77;71.06
59337;BME280;45115;52.002;4.686;2024-03-08T08:10:31;101642.66;;;3.66;71.99
59337;BME280;45115;52.002;4.686;2024-03-08T08:12:58;101649.41;;;3.49;72.50
59337;BME280;45115;52.002;4.686;2024-03-08T08:15:25;101643.44;;;3.42;72.85
59337;BME280;45115;52.002;4.686;2024-03-08T08:17:53;101630.72;;;3.34;73.22
59337;BME280;45115;52.002;4.686;2024-03-08T08:20:20;101642.63;;;3.48;73.03
59337;BME280;45115;52.002;4.686;2024-03-08T08:22:48;101645.97;;;3.40;72.59
59337;BME280;45115;52.002;4.686;2024-03-08T08:25:15;101639.19;;;3.36;72.84
59337;BME280;45115;52.002;4.686;2024-03-08T08:27:45;101630.78;;;3.44;72.82
59337;BME280;45115;52.002;4.686;2024-03-08T08:30:12;101629.94;;;3.49;73.04
59337;BME280;45115;52.002;4.686;2024-03-08T08:32:39;101629.13;;;3.55;72.87
59337;BME280;45115;52.002;4.686;2024-03-08T08:35:08;101622.31;;;3.57;73.00
59337;BME280;45115;52.002;4.686;2024-03-08T08:37:38;101610.53;;;3.71;71.88
59337;BME280;45115;52.002;4.686;2024-03-08T08:40:07;101620.69;;;3.79;72.21
59337;BME280;45115;52.002;4.686;2024-03-08T08:42:36;101613.09;;;3.80;71.83
59337;BME280;45115;52.002;4.686;2024-03-08T08:45:03;101618.13;;;3.86;71.93
59337;BME280;45115;52.002;4.686;2024-03-08T08:47:34;101612.25;;;3.99;71.31
59337;BME280;45115;52.002;4.686;2024-03-08T08:50:00;101598.69;;;4.06;71.01
59337;BME280;45115;52.002;4.686;2024-03-08T08:52:27;101602.06;;;4.13;70.99
59337;BME280;45115;52.002;4.686;2024-03-08T08:54:55;101601.22;;;4.28;71.22
59337;BME280;45115;52.002;4.686;2024-03-08T08:57:23;101592.72;;;4.49;70.08
59337;BME280;45115;52.002;4.686;2024-03-08T08:59:51;101591.84;;;4.60;69.62
59337;BME280;45115;52.002;4.686;2024-03-08T09:02:17;101581.69;;;4.59;70.16
59337;BME280;45115;52.002;4.686;2024-03-08T09:04:46;101584.19;;;4.66;69.35
59337;BME280;45115;52.002;4.686;2024-03-08T09:07:14;101586.69;;;4.75;69.53
59337;BME280;45115;52.002;4.686;2024-03-08T09:09:42;101579.91;;;4.78;68.87
59337;BME280;45115;52.002;4.686;2024-03-08T09:12:09;101578.19;;;4.86;69.75
59337;BME280;45115;52.002;4.686;2024-03-08T09:14:39;101575.53;;;5.08;68.96
59337;BME280;45115;52.002;4.686;2024-03-08T09:17:06;101572.94;;;5.21;68.07
59337;BME280;45115;52.002;4.686;2024-03-08T09:19:36;101562.81;;;5.10;68.08
59337;BME280;45115;52.002;4.686;2024-03-08T09:22:03;101571.22;;;5.21;68.14
59337;BME280;45115;52.002;4.686;2024-03-08T09:24:30;101557.69;;;5.18;67.23
59337;BME280;45115;52.002;4.686;2024-03-08T09:26:57;101566.13;;;5.21;67.10
59337;BME280;45115;52.002;4.686;2024-03-08T09:29:25;101564.34;;;5.38;67.97
59337;BME280;45115;52.002;4.686;2024-03-08T09:31:53;101541.41;;;5.46;66.81
59337;BME280;45115;52.002;4.686;2024-03-08T09:34:20;101541.28;;;5.60;66.96
59337;BME280;45115;52.002;4.686;2024-03-08T09:36:47;101544.63;;;5.71;66.21
59337;BME280;45115;52.002;4.686;2024-03-08T09:39:13;101541.19;;;5.73;65.36
59337;BME280;45115;52.002;4.686;2024-03-08T09:41:42;101527.56;;;5.76;66.97
59337;BME280;45115;52.002;4.686;2024-03-08T09:44:10;101532.56;;;5.94;65.45
59337;BME280;45115;52.002;4.686;2024-03-08T09:46:37;101522.22;;;6.06;65.84
59337;BME280;45115;52.002;4.686;2024-03-08T09:49:05;101521.25;;;6.23;65.87
59337;BME280;45115;52.002;4.686;2024-03-08T09:51:34;101515.19;;;6.30;65.10
59337;BME280;45115;52.002;4.686;2024-03-08T09:54:01;101506.44;;;6.55;64.99
59337;BME280;45115;52.002;4.686;2024-03-08T09:56:32;101500.50;;;6.53;63.97
59337;BME280;45115;52.002;4.686;2024-03-08T09:58:59;101497.78;;;6.65;63.32
59337;BME280;45115;52.002;4.686;2024-03-08T10:01:58;101487.56;;;6.67;62.99
59337;BME280;45115;52.002;4.686;2024-03-08T10:04:26;101481.47;;;6.78;63.51
59337;BME280;45115;52.002;4.686;2024-03-08T10:06:53;101484.69;;;6.91;63.29
59337;BME280;45115;52.002;4.686;2024-03-08T10:09:22;101474.69;;;6.77;62.29
59337;BME280;45115;52.002;4.686;2024-03-08T10:11:50;101479.75;;;6.81;62.76
59337;BME280;45115;52.002;4.686;2024-03-08T10:14:17;101458.38;;;6.86;63.34
59337;BME280;45115;52.002;4.686;2024-03-08T10:16:44;101452.19;;;7.04;63.19
59337;BME280;45115;52.002;4.686;2024-03-08T10:19:12;101448.63;;;7.14;62.47
59337;BME280;45115;52.002;4.686;2024-03-08T10:21:48;101457.91;;;7.20;61.45
59337;BME280;45115;52.002;4.686;2024-03-08T10:24:15;101438.53;;;7.08;61.95
59337;BME280;45115;52.002;4.686;2024-03-08T10:26:42;101431.63;;;7.13;61.08
59337;BME280;45115;52.002;4.686;2024-03-08T10:29:09;101429.25;;;7.55;61.55
59337;BME280;45115;52.002;4.686;2024-03-08T10:31:42;101423.59;;;7.85;60.18
59337;BME280;45115;52.002;4.686;2024-03-08T10:34:09;101423.84;;;7.71;59.81
59337;BME280;45115;52.002;4.686;2024-03-08T10:36:36;101417.72;;;7.80;59.29
59337;BME280;45115;52.002;4.686;2024-03-08T10:39:21;101414.66;;;7.61;59.40
59337;BME280;45115;52.002;4.686;2024-03-08T10:41:53;101402.56;;;7.69;60.66
59337;BME280;45115;52.002;4.686;2024-03-08T10:44:33;101391.31;;;7.79;60.47
59337;BME280;45115;52.002;4.686;2024-03-08T10:47:15;101380.75;;;7.98;60.39
59337;BME280;45115;52.002;4.686;2024-03-08T10:49:50;101387.88;;;7.82;59.70
59337;BME280;45115;52.002;4.686;2024-03-08T10:52:19;101381.50;;;8.03;59.85
59337;BME280;45115;52.002;4.686;2024-03-08T10:54:47;101372.16;;;8.02;59.47
59337;BME280;45115;52.002;4.686;2024-03-08T10:57:18;101373.72;;;8.09;59.39
59337;BME280;45115;52.002;4.686;2024-03-08T10:59:47;101371.09;;;8.12;58.76
59337;BME280;45115;52.002;4.686;2024-03-08T11:02:16;101363.41;;;8.13;57.87
59337;BME280;45115;52.002;4.686;2024-03-08T11:04:45;101359.00;;;8.20;57.72
59337;BME280;45115;52.002;4.686;2024-03-08T11:07:12;101360.81;;;8.15;57.96
59337;BME280;45115;52.002;4.686;2024-03-08T11:09:42;101360.91;;;8.10;58.66
59337;BME280;45115;52.002;4.686;2024-03-08T11:12:24;101347.66;;;8.32;58.26
59337;BME280;45115;52.002;4.686;2024-03-08T11:14:52;101346.16;;;8.22;58.14
59337;BME280;45115;52.002;4.686;2024-03-08T11:17:39;101338.09;;;8.41;57.49
59337;BME280;45115;52.002;4.686;2024-03-08T11:20:09;101329.22;;;8.56;57.03
59337;BME280;45115;52.002;4.686;2024-03-08T11:22:41;101332.25;;;8.73;57.33
59337;BME280;45115;52.002;4.686;2024-03-08T11:25:30;101313.16;;;8.87;57.36
59337;BME280;45115;52.002;4.686;2024-03-08T11:28:11;101303.00;;;8.83;56.69
59337;BME280;45115;52.002;4.686;2024-03-08T11:30:45;101305.78;;;8.74;55.23
59337;BME280;45115;52.002;4.686;2024-03-08T11:33:14;101293.78;;;8.76;55.31
59337;BME280;45115;52.002;4.686;2024-03-08T11:35:42;101296.63;;;9.00;54.72
59337;BME280;45115;52.002;4.686;2024-03-08T11:38:11;101290.25;;;9.14;54.14
59337;BME280;45115;52.002;4.686;2024-03-08T11:40:40;101286.66;;;9.22;54.24
59337;BME280;45115;52.002;4.686;2024-03-08T11:43:08;101292.28;;;9.34;54.24
59337;BME280;45115;52.002;4.686;2024-03-08T11:45:36;101297.72;;;9.55;52.76
59337;BME280;45115;52.002;4.686;2024-03-08T11:48:03;101298.53;;;9.24;53.59
59337;BME280;45115;52.002;4.686;2024-03-08T11:50:30;101296.38;;;9.41;53.71
59337;BME280;45115;52.002;4.686;2024-03-08T11:53:02;101289.81;;;9.62;53.71
59337;BME280;45115;52.002;4.686;2024-03-08T11:55:29;101289.56;;;9.40;53.82
59337;BME280;45115;52.002;4.686;2024-03-08T11:58:01;101294.53;;;9.46;53.53
59337;BME280;45115;52.002;4.686;2024-03-08T12:00:30;101278.78;;;9.29;53.55
59337;BME280;45115;52.002;4.686;2024-03-08T12:03:07;101270.75;;;9.41;54.30
59337;BME280;45115;52.002;4.686;2024-03-08T12:05:35;101269.72;;;9.48;52.34
59337;BME280;45115;52.002;4.686;2024-03-08T12:08:04;101266.38;;;9.45;53.13
59337;BME280;45115;52.002;4.686;2024-03-08T12:10:32;101268.81;;;9.49;52.97
59337;BME280;45115;52.002;4.686;2024-03-08T12:13:01;101264.19;;;9.62;53.67
59337;BME280;45115;52.002;4.686;2024-03-08T12:15:30;101260.66;;;9.66;53.10
59337;BME280;45115;52.002;4.686;2024-03-08T12:17:59;101262.72;;;9.54;53.20
59337;BME280;45115;52.002;4.686;2024-03-08T12:20:28;101266.19;;;9.82;53.02
59337;BME280;45115;52.002;4.686;2024-03-08T12:22:56;101233.75;;;9.81;53.11
59337;BME280;45115;52.002;4.686;2024-03-08T12:25:26;101221.03;;;9.78;52.12
59337;BME280;45115;52.002;4.686;2024-03-08T12:27:54;101227.38;;;9.65;52.06
59337;BME280;45115;52.002;4.686;2024-03-08T12:30:23;101233.91;;;9.75;53.17
59337;BME280;45115;52.002;4.686;2024-03-08T12:32:55;101228.41;;;9.87;52.96
59337;BME280;45115;52.002;4.686;2024-03-08T12:35:23;101220.84;;;9.84;52.78
59337;BME280;45115;52.002;4.686;2024-03-08T12:37:51;101219.47;;;9.72;51.59
59337;BME280;45115;52.002;4.686;2024-03-08T12:40:19;101208.34;;;9.73;52.91
59337;BME280;45115;52.002;4.686;2024-03-08T12:42:46;101214.38;;;9.71;53.74
59337;BME280;45115;52.002;4.686;2024-03-08T12:45:14;101207.38;;;9.77;53.39
59337;BME280;45115;52.002;4.686;2024-03-08T12:47:41;101210.19;;;9.96;53.29
59337;BME280;45115;52.002;4.686;2024-03-08T12:50:10;101199.91;;;9.98;52.40
59337;BME280;45115;52.002;4.686;2024-03-08T12:52:37;101189.97;;;9.87;52.24
59337;BME280;45115;52.002;4.686;2024-03-08T12:55:04;101192.94;;;10.01;53.86
59337;BME280;45115;52.002;4.686;2024-03-08T12:57:33;101186.75;;;10.08;52.19
59337;BME280;45115;52.002;4.686;2024-03-08T13:00:01;101187.81;;;10.01;52.13
59337;BME280;45115;52.002;4.686;2024-03-08T13:02:29;101184.66;;;9.93;52.09
59337;BME280;45115;52.002;4.686;2024-03-08T13:04:56;101178.09;;;9.84;52.75